Time;durP1;ratioP1;P1;durP2;ratioP2;P2;SDS_P1;SDS_P2;PMS_P1;PMS_P2;Temp;Humidity;BMP_temperature;BMP_pressure;BME280_temperature;BME280_humidity;BME280_pressure;Samples;Min_cycle;Max_cycle;Signal;HPM_P1;HPM_P2
2023/02/15 00:01:52;;;;;;;17.55;10.13;;;-0.50;99.90;;;;;;5090212;28;20199;-70
2023/02/15 00:04:21;;;;;;;17.55;8.57;;;-0.50;99.90;;;;;;5090387;28;20291;-71
2023/02/15 00:06:48;;;;;;;22.75;9.90;;;-0.60;99.90;;;;;;5090653;28;20232;-70
2023/02/15 00:09:14;;;;;;;12.52;8.73;;;-0.60;99.90;;;;;;5090592;28;20203;-71
2023/02/15 00:11:42;;;;;;;19.13;10.15;;;-0.60;99.90;;;;;;5090327;28;20196;-71
2023/02/15 00:14:12;;;;;;;17.70;8.48;;;-0.60;99.90;;;;;;5090705;28;20215;-70
2023/02/15 00:16:41;;;;;;;15.70;9.35;;;-0.70;99.90;;;;;;5090002;28;20231;-70
2023/02/15 00:19:08;;;;;;;13.07;8.52;;;-0.70;99.90;;;;;;5090546;28;20203;-71
2023/02/15 00:21:36;;;;;;;13.35;8.95;;;-0.70;99.90;;;;;;5090593;28;20203;-71
2023/02/15 00:24:05;;;;;;;19.20;10.45;;;-0.70;99.90;;;;;;5094657;28;20693;-71
2023/02/15 00:26:32;;;;;;;15.95;9.70;;;-0.70;99.90;;;;;;5094305;28;20243;-71
2023/02/15 00:28:59;;;;;;;15.18;8.60;;;-0.80;99.90;;;;;;5094469;28;20206;-70
2023/02/15 00:31:27;;;;;;;19.98;9.88;;;-0.80;99.90;;;;;;5094107;28;20200;-71
2023/02/15 00:33:55;;;;;;;15.50;8.90;;;-0.80;99.90;;;;;;5094293;28;20218;-70
2023/02/15 00:36:22;;;;;;;15.05;9.35;;;-0.80;99.90;;;;;;5094082;28;20226;-70
2023/02/15 00:38:49;;;;;;;12.52;8.45;;;-0.80;99.90;;;;;;5094417;28;20204;-71
2023/02/15 00:41:15;;;;;;;14.32;9.52;;;-0.80;99.90;;;;;;5093862;28;20256;-70
2023/02/15 00:43:42;;;;;;;15.85;9.82;;;-0.80;99.90;;;;;;5094382;28;20207;-70
2023/02/15 00:46:09;;;;;;;15.32;8.43;;;-0.90;99.90;;;;;;5093965;28;20220;-70
2023/02/15 00:48:35;;;;;;;13.70;8.55;;;-0.90;99.90;;;;;;5094137;28;20203;-71
2023/02/15 00:51:04;;;;;;;10.65;7.20;;;-0.90;99.90;;;;;;5093779;28;20624;-71
2023/02/15 00:53:31;;;;;;;16.92;9.48;;;-0.90;99.90;;;;;;5093953;28;20937;-71
2023/02/15 00:55:58;;;;;;;14.88;8.82;;;-0.90;99.90;;;;;;5093863;28;20219;-71
2023/02/15 00:58:25;;;;;;;17.60;10.57;;;-0.90;99.90;;;;;;5093723;28;20196;-71
2023/02/15 01:00:52;;;;;;;15.65;9.60;;;-0.90;99.90;;;;;;5093724;28;20579;-71
2023/02/15 01:03:21;;;;;;;13.50;9.93;;;-1.00;99.90;;;;;;5093560;28;20625;-71
2023/02/15 01:05:49;;;;;;;18.27;9.52;;;-1.00;99.90;;;;;;5093697;28;20204;-71
2023/02/15 01:08:17;;;;;;;13.75;7.38;;;-1.00;99.90;;;;;;5094058;28;20196;-70
2023/02/15 01:10:46;;;;;;;15.38;8.65;;;-1.00;99.90;;;;;;5093569;28;20200;-70
2023/02/15 01:13:14;;;;;;;13.77;8.30;;;-1.00;99.90;;;;;;5093850;28;20208;-70
2023/02/15 01:15:41;;;;;;;11.85;7.80;;;-1.00;99.90;;;;;;5093170;28;20729;-71
2023/02/15 01:18:08;;;;;;;14.30;8.55;;;-1.00;99.90;;;;;;5093599;28;20242;-71
2023/02/15 01:20:38;;;;;;;17.30;9.23;;;-1.00;99.90;;;;;;5093088;28;20600;-70
2023/02/15 01:23:06;;;;;;;15.75;9.20;;;-1.00;99.90;;;;;;5093494;28;20210;-71
2023/02/15 01:25:35;;;;;;;13.68;8.50;;;-1.00;99.90;;;;;;5093337;28;20204;-71
2023/02/15 01:28:03;;;;;;;15.13;9.25;;;-1.00;99.90;;;;;;5093288;28;20216;-70
2023/02/15 01:30:29;;;;;;;12.85;8.07;;;-1.00;99.90;;;;;;5093106;28;20227;-70
2023/02/15 01:32:57;;;;;;;13.50;8.38;;;-1.10;99.90;;;;;;5092882;28;20199;-70
2023/02/15 01:35:23;;;;;;;13.00;10.07;;;-1.10;99.90;;;;;;5093044;28;20223;-71
2023/02/15 01:37:50;;;;;;;13.20;7.90;;;-1.10;99.90;;;;;;5093146;28;20223;-70
2023/02/15 01:40:18;;;;;;;14.48;7.82;;;-1.20;99.90;;;;;;5092804;28;20200;-71
2023/02/15 01:42:46;;;;;;;18.02;7.63;;;-1.20;99.90;;;;;;5092785;28;20671;-70
2023/02/15 01:45:22;;;;;;;12.15;8.70;;;-1.20;99.90;;;;;;5092761;28;20577;-71
2023/02/15 01:47:54;;;;;;;9.55;6.57;;;-1.20;99.90;;;;;;5093010;28;20223;-71
2023/02/15 01:50:26;;;;;;;15.48;9.85;;;-1.20;99.90;;;;;;5092659;28;20299;-71
2023/02/15 01:52:58;;;;;;;12.93;8.48;;;-1.20;99.90;;;;;;5092809;28;20200;-70
2023/02/15 01:55:27;;;;;;;14.18;8.43;;;-1.20;99.90;;;;;;5092783;28;20623;-69
2023/02/15 01:57:56;;;;;;;13.73;7.82;;;-1.20;99.90;;;;;;5092537;28;20220;-71
2023/02/15 02:00:23;;;;;;;10.98;7.38;;;-1.20;99.90;;;;;;5092548;28;20686;-70
2023/02/15 02:02:54;;;;;;;13.63;8.93;;;-1.30;99.90;;;;;;5092746;28;20253;-70
2023/02/15 02:05:21;;;;;;;10.93;7.97;;;-1.30;99.90;;;;;;5093083;28;20204;-70
2023/02/15 02:07:51;;;;;;;11.60;8.27;;;-1.30;99.90;;;;;;5092972;28;20223;-70
2023/02/15 02:10:20;;;;;;;15.02;8.13;;;-1.30;99.90;;;;;;5092290;28;20196;-70
2023/02/15 02:12:50;;;;;;;17.50;9.35;;;-1.30;99.90;;;;;;5092159;28;20686;-70
2023/02/15 02:15:18;;;;;;;13.57;7.97;;;-1.30;99.90;;;;;;5092012;28;20215;-70
2023/02/15 02:17:59;;;;;;;14.65;8.60;;;-1.30;99.90;;;;;;5092320;28;20297;-70
2023/02/15 02:20:57;;;;;;;12.18;7.63;;;-1.30;99.90;;;;;;5091814;28;20203;-70
2023/02/15 02:23:31;;;;;;;13.45;7.80;;;-1.40;99.90;;;;;;5091935;28;20204;-70
2023/02/15 02:26:34;;;;;;;9.43;6.85;;;-1.30;99.90;;;;;;5092006;28;20222;-70
2023/02/15 02:29:40;;;;;;;13.02;9.43;;;-1.40;99.90;;;;;;5092346;28;20200;-70
2023/02/15 02:32:36;;;;;;;11.60;7.72;;;-1.40;99.90;;;;;;5041023;28;20302;-70
2023/02/15 02:35:12;;;;;;;17.05;10.38;;;-1.40;99.90;;;;;;5092147;28;20208;-70
2023/02/15 02:37:49;;;;;;;12.68;8.25;;;-1.40;99.90;;;;;;5091595;28;20376;-70
2023/02/15 02:40:21;;;;;;;11.88;6.70;;;-1.40;99.90;;;;;;5091958;28;20261;-70
2023/02/15 02:42:55;;;;;;;13.70;8.02;;;-1.50;99.90;;;;;;5091686;28;20204;-70
2023/02/15 02:45:26;;;;;;;12.82;8.05;;;-1.50;99.90;;;;;;5091644;28;20191;-70
2023/02/15 02:47:57;;;;;;;10.02;7.22;;;-1.50;99.90;;;;;;5091798;28;20710;-70
2023/02/15 02:50:28;;;;;;;16.05;8.48;;;-1.50;99.90;;;;;;5091447;28;20196;-70
2023/02/15 02:52:57;;;;;;;12.60;8.45;;;-1.60;99.90;;;;;;5091576;28;20232;-69
2023/02/15 02:55:28;;;;;;;10.45;6.80;;;-1.60;99.90;;;;;;5091433;28;20226;-70
2023/02/15 02:57:58;;;;;;;13.80;7.90;;;-1.60;99.90;;;;;;5091619;28;20825;-70
2023/02/15 03:00:30;;;;;;;12.68;8.30;;;-1.60;99.90;;;;;;5091608;28;20517;-70
2023/02/15 03:03:05;;;;;;;12.52;6.63;;;-1.60;99.90;;;;;;5091182;28;20205;-71
2023/02/15 03:05:34;;;;;;;12.05;7.05;;;-1.70;99.90;;;;;;5091486;28;20199;-70
2023/02/15 03:08:05;;;;;;;15.20;8.20;;;-1.70;99.90;;;;;;5091256;28;20249;-70
2023/02/15 03:10:34;;;;;;;16.15;8.30;;;-1.70;99.90;;;;;;5091333;28;20196;-70
2023/02/15 03:13:01;;;;;;;10.30;7.35;;;-1.70;99.90;;;;;;5091110;28;20204;-70
2023/02/15 03:16:25;;;;;;;11.40;8.10;;;-1.70;99.90;;;;;;5091095;28;20269;-70
2023/02/15 03:18:20;;;;;;;10.20;6.70;;;-1.70;99.90;;;;;;5091191;28;20200;-70
2023/02/15 03:20:50;;;;;;;9.77;7.00;;;-1.70;99.90;;;;;;5090775;28;20272;-70
2023/02/15 03:23:19;;;;;;;15.55;9.15;;;-1.70;99.90;;;;;;5091227;28;20212;-70
2023/02/15 03:25:52;;;;;;;13.50;7.32;;;-1.70;99.90;;;;;;5090759;28;20663;-70
2023/02/15 03:28:24;;;;;;;15.20;7.97;;;-1.60;99.90;;;;;;5091164;28;20257;-70
2023/02/15 03:30:57;;;;;;;13.05;6.70;;;-1.60;99.90;;;;;;5090543;28;20268;-70
2023/02/15 03:33:24;;;;;;;12.10;7.68;;;-1.60;99.90;;;;;;5090964;28;20211;-71
2023/02/15 03:35:59;;;;;;;12.13;7.78;;;-1.60;99.90;;;;;;5090682;28;20226;-70
2023/02/15 03:38:30;;;;;;;10.80;8.02;;;-1.70;99.90;;;;;;5090651;28;20618;-70
2023/02/15 03:41:11;;;;;;;11.68;8.18;;;-1.70;99.90;;;;;;5090772;28;20675;-70
2023/02/15 03:43:45;;;;;;;13.10;7.82;;;-1.70;99.90;;;;;;5090573;28;20208;-70
2023/02/15 03:46:17;;;;;;;18.48;8.40;;;-1.70;99.90;;;;;;5090762;28;20220;-70
2023/02/15 03:48:48;;;;;;;11.30;6.80;;;-1.70;99.90;;;;;;5090684;28;20670;-70
2023/02/15 03:51:35;;;;;;;12.85;8.40;;;-1.70;99.90;;;;;;5090499;28;20724;-70
2023/02/15 03:54:05;;;;;;;12.07;7.20;;;-1.80;99.90;;;;;;5090928;28;20199;-70
2023/02/15 03:56:31;;;;;;;12.00;8.25;;;-1.80;99.90;;;;;;5089136;28;20634;-70
2023/02/15 04:01:59;;;;;;;11.93;6.90;;;-1.90;99.90;;;;;;5090267;28;20289;-70
2023/02/15 04:04:31;;;;;;;12.45;7.43;;;-1.90;99.90;;;;;;5090633;28;20569;-71
2023/02/15 04:06:59;;;;;;;9.57;6.75;;;-1.90;99.90;;;;;;5090376;28;20220;-71
2023/02/15 04:12:10;;;;;;;11.40;7.75;;;-1.90;99.90;;;;;;5090280;28;20572;-70
2023/02/15 04:17:21;;;;;;;11.70;7.00;;;-2.00;99.90;;;;;;5091228;28;20265;-70
2023/02/15 04:25:18;;;;;;;11.45;7.00;;;-2.00;99.90;;;;;;5090832;28;20210;-70
2023/02/15 04:27:46;;;;;;;13.27;6.68;;;-2.00;99.90;;;;;;5090411;28;20228;-71
2023/02/15 04:30:15;;;;;;;14.20;8.10;;;-2.10;99.90;;;;;;5090564;28;20203;-71
2023/02/15 04:32:42;;;;;;;14.45;7.63;;;-2.10;99.90;;;;;;5090064;28;20261;-71
2023/02/15 04:35:10;;;;;;;13.38;7.53;;;-2.10;99.90;;;;;;5090403;28;20682;-71
2023/02/15 04:37:38;;;;;;;14.13;8.93;;;-2.10;99.90;;;;;;5089787;28;20228;-71
2023/02/15 04:40:07;;;;;;;12.65;7.40;;;-2.10;99.90;;;;;;5090335;28;20199;-70
2023/02/15 04:42:34;;;;;;;16.13;8.45;;;-2.10;99.90;;;;;;5089473;28;20207;-70
2023/02/15 04:45:00;;;;;;;11.60;7.45;;;-2.10;99.90;;;;;;5090457;28;20199;-70
2023/02/15 04:47:27;;;;;;;10.40;8.00;;;-2.10;99.90;;;;;;5089787;28;20583;-70
2023/02/15 04:49:54;;;;;;;13.50;8.00;;;-2.10;99.90;;;;;;5090288;28;20200;-70
2023/02/15 04:52:20;;;;;;;11.95;8.05;;;-2.00;99.90;;;;;;5089811;28;20249;-71
2023/02/15 04:54:48;;;;;;;12.68;7.85;;;-2.00;99.90;;;;;;5090075;28;20200;-70
2023/02/15 04:57:15;;;;;;;12.38;7.05;;;-2.00;99.90;;;;;;5089871;28;20228;-70
2023/02/15 04:59:42;;;;;;;11.95;7.40;;;-1.90;99.90;;;;;;5089878;28;20204;-71
2023/02/15 05:02:09;;;;;;;14.65;7.63;;;-2.00;99.90;;;;;;5089808;28;20200;-71
2023/02/15 05:04:36;;;;;;;13.30;6.80;;;-2.00;99.90;;;;;;5090131;28;20286;-70
2023/02/15 05:07:03;;;;;;;16.27;8.77;;;-2.10;99.90;;;;;;5089637;28;20728;-71
2023/02/15 05:09:30;;;;;;;11.65;7.95;;;-2.10;99.90;;;;;;5094446;28;20296;-71
2023/02/15 05:11:57;;;;;;;12.07;7.22;;;-2.10;99.90;;;;;;5094336;28;20216;-70
2023/02/15 05:14:24;;;;;;;14.45;7.68;;;-2.20;99.90;;;;;;5093433;28;20196;-71
2023/02/15 05:16:51;;;;;;;11.40;6.95;;;-2.20;99.90;;;;;;5093451;28;20580;-70
2023/02/15 05:19:18;;;;;;;17.88;7.95;;;-2.20;99.90;;;;;;5093277;28;20606;-70
2023/02/15 05:21:44;;;;;;;14.27;8.95;;;-2.20;99.90;;;;;;5093068;28;20211;-71
2023/02/15 05:29:37;;;;;;;17.02;7.53;;;-2.10;99.90;;;;;;5092962;28;20207;-70
2023/02/15 05:32:04;;;;;;;13.35;7.80;;;-2.20;99.90;;;;;;5093065;28;20199;-70
2023/02/15 05:34:31;;;;;;;14.52;7.95;;;-2.20;99.90;;;;;;5093337;28;20230;-70
2023/02/15 05:36:58;;;;;;;10.13;5.82;;;-2.20;99.90;;;;;;5092915;28;20230;-70
2023/02/15 05:39:24;;;;;;;11.48;8.10;;;-2.20;99.90;;;;;;5093048;28;20196;-70
2023/02/15 05:41:51;;;;;;;11.77;6.90;;;-2.20;99.90;;;;;;5092738;28;20203;-70
2023/02/15 05:44:18;;;;;;;10.10;6.78;;;-2.30;99.90;;;;;;5093069;28;20204;-70
2023/02/15 05:46:46;;;;;;;9.18;6.30;;;-2.30;99.90;;;;;;5094405;28;20219;-70
2023/02/15 05:49:12;;;;;;;11.20;6.70;;;-2.30;99.90;;;;;;5094333;28;20199;-70
2023/02/15 05:51:39;;;;;;;11.93;7.15;;;-2.40;99.90;;;;;;5093293;28;20199;-70
2023/02/15 05:54:06;;;;;;;10.90;7.13;;;-2.40;99.90;;;;;;5092997;28;20571;-70
2023/02/15 05:56:32;;;;;;;11.18;6.88;;;-2.40;99.90;;;;;;5094066;28;20239;-70
2023/02/15 05:58:59;;;;;;;10.55;6.60;;;-2.40;99.90;;;;;;5113355;28;20202;-69
2023/02/15 06:01:26;;;;;;;12.68;7.40;;;-2.50;99.90;;;;;;5112875;28;20203;-70
2023/02/15 06:03:55;;;;;;;10.60;6.43;;;-2.50;99.90;;;;;;5113396;28;20256;-70
2023/02/15 06:06:22;;;;;;;11.23;7.05;;;-2.50;99.90;;;;;;5112514;28;20223;-70
2023/02/15 06:08:49;;;;;;;10.73;7.10;;;-2.60;99.90;;;;;;5113074;28;20207;-70
2023/02/15 06:11:15;;;;;;;16.17;7.78;;;-2.60;99.90;;;;;;5112370;28;20203;-70
2023/02/15 06:13:42;;;;;;;15.55;7.63;;;-2.60;99.90;;;;;;5112904;28;20206;-70
2023/02/15 06:16:09;;;;;;;11.30;7.03;;;-2.60;99.90;;;;;;5112641;28;20610;-70
2023/02/15 06:18:36;;;;;;;17.40;8.48;;;-2.60;99.90;;;;;;5112577;28;20202;-70
2023/02/15 06:21:04;;;;;;;9.85;6.88;;;-2.60;99.90;;;;;;5111749;28;20195;-69
2023/02/15 06:23:30;;;;;;;15.70;8.07;;;-2.60;99.90;;;;;;5112392;27;20211;-71
2023/02/15 06:25:57;;;;;;;10.50;7.10;;;-2.50;99.90;;;;;;5112687;28;20206;-71
2023/02/15 06:28:25;;;;;;;12.40;7.13;;;-2.50;99.90;;;;;;5112736;28;20203;-70
2023/02/15 06:30:51;;;;;;;11.82;7.18;;;-2.50;99.90;;;;;;5112754;28;20229;-72
2023/02/15 06:33:18;;;;;;;14.43;8.10;;;-2.50;99.90;;;;;;5112139;28;20203;-71
2023/02/15 06:35:46;;;;;;;11.00;6.20;;;-2.50;99.90;;;;;;5112204;28;20632;-71
2023/02/15 06:38:14;;;;;;;12.38;8.00;;;-2.50;99.90;;;;;;5112165;28;20317;-70
2023/02/15 06:40:40;;;;;;;11.85;7.88;;;-2.50;99.90;;;;;;5112010;28;20226;-70
2023/02/15 06:43:07;;;;;;;12.60;7.60;;;-2.50;99.90;;;;;;5112022;28;20248;-70
2023/02/15 06:45:34;;;;;;;11.75;7.32;;;-2.50;99.90;;;;;;5111529;28;20670;-70
2023/02/15 06:48:00;;;;;;;10.60;6.43;;;-2.40;99.90;;;;;;5112004;27;20226;-70
2023/02/15 06:50:27;;;;;;;14.55;7.88;;;-2.50;99.90;;;;;;5111906;28;20206;-70
2023/02/15 06:52:57;;;;;;;9.15;7.70;;;-2.50;99.90;;;;;;5112073;28;20209;-71
2023/02/15 06:55:26;;;;;;;7.70;5.45;;;-2.40;99.90;;;;;;5111843;28;20293;-71
2023/02/15 06:57:52;;;;;;;11.70;8.55;;;-2.40;99.90;;;;;;5111877;28;20249;-71
2023/02/15 07:00:20;;;;;;;12.63;8.48;;;-2.40;99.90;;;;;;5111969;28;20203;-70
2023/02/15 07:02:47;;;;;;;12.48;8.00;;;-2.40;99.90;;;;;;5111770;28;20206;-71
2023/02/15 07:05:13;;;;;;;9.77;5.55;;;-2.40;99.90;;;;;;5111987;28;20579;-70
2023/02/15 07:07:40;;;;;;;11.80;6.85;;;-2.40;99.90;;;;;;5111608;28;20215;-71
2023/02/15 07:10:07;;;;;;;13.95;7.25;;;-2.30;99.90;;;;;;5111726;28;20200;-70
2023/02/15 07:12:44;;;;;;;11.13;6.63;;;-2.30;99.90;;;;;;5111395;28;20535;-71
2023/02/15 07:15:12;;;;;;;15.38;6.75;;;-2.20;99.90;;;;;;5111919;28;20211;-71
2023/02/15 07:17:39;;;;;;;13.43;7.85;;;-2.20;99.90;;;;;;5111342;28;20223;-71
2023/02/15 07:20:09;;;;;;;10.63;6.75;;;-2.20;99.90;;;;;;5111920;28;20191;-71
2023/02/15 07:22:37;;;;;;;9.43;6.90;;;-2.20;99.90;;;;;;5111054;28;20203;-71
2023/02/15 07:25:03;;;;;;;13.10;7.05;;;-2.10;99.90;;;;;;5111783;28;20558;-71
2023/02/15 07:27:31;;;;;;;19.75;7.88;;;-2.00;99.90;;;;;;5111339;28;20910;-72
2023/02/15 07:29:59;;;;;;;10.60;6.97;;;-2.00;99.90;;;;;;5111686;28;20241;-71
2023/02/15 07:32:29;;;;;;;11.75;6.55;;;-1.80;99.90;;;;;;5110740;28;20221;-71
2023/02/15 07:34:56;;;;;;;8.43;6.20;;;-1.80;99.90;;;;;;5111577;28;20222;-71
2023/02/15 07:37:22;;;;;;;11.00;7.13;;;-1.70;99.90;;;;;;5110737;28;20219;-71
2023/02/15 07:39:49;;;;;;;14.38;7.30;;;-1.60;99.90;;;;;;5111232;28;20202;-72
2023/02/15 07:42:16;;;;;;;9.68;7.15;;;-1.30;99.90;;;;;;5110986;28;20206;-71
2023/02/15 07:44:42;;;;;;;12.75;8.35;;;-0.50;99.90;;;;;;5111080;28;20210;-72
2023/02/15 07:47:11;;;;;;;18.52;8.70;;;1.10;99.90;;;;;;5110591;28;20713;-73
2023/02/15 07:49:38;;;;;;;14.93;8.73;;;2.90;99.90;;;;;;5110599;28;20207;-73
2023/02/15 07:52:05;;;;;;;8.90;7.18;;;4.50;99.90;;;;;;5105504;28;20234;-72
2023/02/15 07:54:32;;;;;;;10.80;7.55;;;5.80;99.90;;;;;;5109849;28;20248;-72
2023/02/15 07:56:59;;;;;;;11.18;8.73;;;6.70;99.90;;;;;;5110442;28;20227;-72
2023/02/15 07:59:27;;;;;;;10.25;7.82;;;7.60;99.90;;;;;;5110419;28;20203;-73
2023/02/15 08:01:56;;;;;;;8.90;6.70;;;8.70;99.90;;;;;;5110093;28;20198;-73
2023/02/15 08:04:24;;;;;;;13.48;8.63;;;9.50;99.90;;;;;;5110619;28;20256;-73
2023/02/15 08:06:54;;;;;;;14.75;8.02;;;10.10;99.90;;;;;;5110638;28;20219;-72
2023/02/15 08:09:21;;;;;;;13.63;9.52;;;10.50;99.20;;;;;;5110572;28;20578;-74
2023/02/15 08:11:49;;;;;;;12.38;9.25;;;10.80;99.10;;;;;;5110483;28;20203;-73
2023/02/15 08:14:17;;;;;;;12.68;8.00;;;11.10;98.30;;;;;;5110193;28;20210;-76
2023/02/15 08:16:45;;;;;;;12.68;8.77;;;11.30;98.20;;;;;;5110342;28;20227;-75
2023/02/15 08:19:14;;;;;;;11.23;8.35;;;11.80;97.80;;;;;;5111114;28;20551;-75
2023/02/15 08:21:43;;;;;;;14.50;9.48;;;12.50;97.10;;;;;;5110251;28;20199;-75
2023/02/15 08:24:11;;;;;;;11.68;9.23;;;13.00;96.20;;;;;;5110730;28;20229;-75
2023/02/15 08:26:39;;;;;;;9.13;8.05;;;13.40;95.60;;;;;;5106725;28;20226;-76
2023/02/15 08:29:07;;;;;;;13.07;8.52;;;13.50;94.70;;;;;;5107468;28;20222;-76
2023/02/15 08:31:34;;;;;;;12.20;8.50;;;12.90;95.20;;;;;;5109913;28;20202;-75
2023/02/15 08:34:01;;;;;;;15.47;9.30;;;12.60;95.30;;;;;;5110510;28;20551;-75
2023/02/15 08:36:29;;;;;;;10.10;8.80;;;12.90;95.40;;;;;;5109551;28;20483;-75
2023/02/15 08:38:59;;;;;;;10.07;8.17;;;13.10;95.40;;;;;;5109841;28;20580;-75
2023/02/15 08:41:29;;;;;;;14.43;9.40;;;13.40;95.00;;;;;;5109848;28;20448;-75
2023/02/15 08:43:57;;;;;;;11.13;8.90;;;14.00;94.40;;;;;;5112674;28;20982;-75
2023/02/15 08:46:26;;;;;;;11.00;8.73;;;14.50;93.60;;;;;;5113963;28;20484;-76
2023/02/15 08:48:53;;;;;;;11.30;9.30;;;14.40;94.10;;;;;;5114629;28;20505;-75
2023/02/15 08:51:21;;;;;;;15.93;9.00;;;14.10;94.30;;;;;;5113620;28;20891;-75
2023/02/15 08:53:49;;;;;;;14.57;9.77;;;14.50;94.00;;;;;;5114469;28;20468;-73
2023/02/15 08:56:18;;;;;;;12.20;9.30;;;15.50;93.10;;;;;;5114121;28;20979;-75
2023/02/15 08:58:45;;;;;;;10.67;8.87;;;15.40;92.80;;;;;;5114493;28;20488;-75
2023/02/15 09:01:13;;;;;;;10.30;8.43;;;15.50;92.40;;;;;;5114491;27;21041;-76
2023/02/15 09:03:40;;;;;;;13.03;9.40;;;15.80;91.80;;;;;;5113986;28;20460;-76
2023/02/15 09:06:07;;;;;;;12.17;9.07;;;15.70;91.90;;;;;;5114198;28;20574;-76
2023/02/15 09:08:34;;;;;;;9.63;8.63;;;16.20;91.80;;;;;;5113980;28;20456;-76
2023/02/15 09:11:09;;;;;;;12.67;9.03;;;17.20;90.90;;;;;;5114405;28;20464;-75
2023/02/15 09:13:38;;;;;;;14.20;9.77;;;17.90;89.60;;;;;;5113747;28;20520;-72
2023/02/15 09:16:07;;;;;;;9.30;8.23;;;17.60;89.50;;;;;;5114261;28;20465;-74
2023/02/15 09:18:37;;;;;;;10.10;7.97;;;18.00;88.10;;;;;;5114135;28;20484;-74
2023/02/15 09:21:13;;;;;;;10.03;8.13;;;18.20;88.80;;;;;;5093693;28;20453;-74
2023/02/15 09:23:40;;;;;;;12.13;9.00;;;18.20;88.20;;;;;;5093062;28;20948;-73
2023/02/15 09:26:08;;;;;;;14.40;10.03;;;18.50;88.20;;;;;;5089493;28;20892;-74
2023/02/15 09:28:36;;;;;;;9.17;8.20;;;19.10;86.40;;;;;;5093306;28;20465;-74
2023/02/15 09:31:08;;;;;;;12.77;8.80;;;19.30;87.80;;;;;;5093498;28;20465;-74
2023/02/15 09:33:36;;;;;;;15.63;8.93;;;19.50;86.40;;;;;;5093096;28;20884;-74
2023/02/15 09:36:02;;;;;;;11.90;9.70;;;19.30;85.90;;;;;;5093343;28;20454;-76
2023/02/15 09:38:29;;;;;;;12.83;9.77;;;19.50;86.10;;;;;;5093106;28;21025;-73
2023/02/15 09:41:10;;;;;;;11.23;9.20;;;19.90;82.90;;;;;;5093429;28;20458;-75
2023/02/15 09:43:51;;;;;;;9.83;8.63;;;19.90;83.30;;;;;;5093140;28;20491;-74
2023/02/15 09:46:31;;;;;;;9.40;8.30;;;20.00;84.50;;;;;;5092915;28;20477;-74
2023/02/15 09:49:05;;;;;;;9.10;7.90;;;20.50;82.80;;;;;;5093135;28;20458;-74
2023/02/15 09:51:54;;;;;;;11.60;8.50;;;20.70;79.70;;;;;;5092590;28;20457;-74
2023/02/15 09:54:41;;;;;;;10.80;8.20;;;21.00;79.30;;;;;;5092952;28;20519;-74
2023/02/15 09:57:18;;;;;;;11.57;8.30;;;21.50;79.90;;;;;;5092789;28;20481;-73
2023/02/15 09:59:56;;;;;;;10.20;8.80;;;22.00;78.50;;;;;;5092870;28;20461;-74
2023/02/15 10:02:37;;;;;;;11.10;8.83;;;22.40;77.30;;;;;;5092814;28;20461;-74
2023/02/15 10:05:17;;;;;;;10.87;8.73;;;22.60;75.90;;;;;;5093205;28;20507;-74
2023/02/15 10:08:01;;;;;;;15.67;9.87;;;22.30;75.00;;;;;;5092824;28;20481;-75
2023/02/15 10:10:36;;;;;;;10.63;9.00;;;21.90;77.20;;;;;;5092581;28;20952;-75
2023/02/15 10:13:18;;;;;;;14.20;10.03;;;21.50;77.60;;;;;;5092545;28;20462;-73
2023/02/15 10:15:57;;;;;;;13.03;10.27;;;22.00;77.30;;;;;;5092816;28;20458;-72
2023/02/15 10:18:50;;;;;;;11.60;9.67;;;22.20;76.90;;;;;;5092405;28;20477;-71
2023/02/15 10:21:28;;;;;;;13.20;9.83;;;23.00;76.60;;;;;;5092438;28;20462;-71
2023/02/15 10:24:16;;;;;;;10.93;9.80;;;23.60;75.20;;;;;;5092388;28;20979;-73
2023/02/15 10:26:46;;;;;;;12.47;8.67;;;23.80;73.90;;;;;;5092181;28;21046;-73
2023/02/15 10:29:24;;;;;;;14.67;10.23;;;24.00;74.60;;;;;;5092424;28;20458;-73
2023/02/15 10:32:00;;;;;;;17.50;9.90;;;24.00;74.90;;;;;;5092043;28;20464;-75
2023/02/15 10:34:36;;;;;;;9.40;8.37;;;24.00;74.20;;;;;;5092050;28;20489;-73
2023/02/15 10:37:29;;;;;;;13.60;9.23;;;24.10;74.00;;;;;;5106721;28;20493;-74
2023/02/15 10:40:06;;;;;;;10.80;9.17;;;23.70;73.50;;;;;;5086254;28;20464;-73
2023/02/15 10:42:44;;;;;;;10.90;9.60;;;23.80;74.40;;;;;;5112371;28;20513;-72
2023/02/15 10:45:21;;;;;;;13.33;9.93;;;24.30;74.10;;;;;;5112176;27;20460;-72
2023/02/15 10:48:17;;;;;;;10.50;9.50;;;24.00;73.50;;;;;;5112097;28;20472;-72
2023/02/15 10:50:49;;;;;;;12.30;9.33;;;24.40;73.00;;;;;;5111660;28;20464;-72
2023/02/15 10:53:33;;;;;;;11.07;9.97;;;24.50;72.90;;;;;;5111566;28;20503;-72
2023/02/15 10:56:12;;;;;;;12.40;11.10;;;24.40;73.00;;;;;;5104810;28;20452;-72
2023/02/15 10:58:55;;;;;;;11.97;10.00;;;24.00;73.60;;;;;;5092054;28;20332;-73
2023/02/15 11:01:28;;;;;;;11.30;10.13;;;24.40;72.80;;;;;;5100058;28;20944;-72
2023/02/15 11:04:30;;;;;;;13.43;9.80;;;24.70;72.10;;;;;;5112864;28;20460;-72
2023/02/15 11:07:00;;;;;;;10.80;9.80;;;24.60;72.30;;;;;;5111441;28;20468;-72
2023/02/15 11:09:35;;;;;;;14.43;9.50;;;24.00;72.30;;;;;;5111569;28;20451;-70
2023/02/15 11:12:02;;;;;;;11.80;9.90;;;23.70;72.30;;;;;;5111496;28;20870;-70
2023/02/15 11:14:36;;;;;;;12.30;11.00;;;23.60;72.80;;;;;;5111618;28;21082;-70
2023/02/15 11:17:07;;;;;;;10.63;9.53;;;23.80;72.40;;;;;;5111561;28;20481;-71
2023/02/15 11:19:39;;;;;;;11.43;10.23;;;24.20;72.10;;;;;;5111192;28;20503;-71
2023/02/15 11:22:08;;;;;;;12.23;9.30;;;24.60;71.40;;;;;;5111319;28;20457;-71
2023/02/15 11:24:41;;;;;;;12.70;10.30;;;24.90;71.00;;;;;;5111150;28;20475;-70
2023/02/15 11:27:19;;;;;;;10.53;9.53;;;25.10;71.10;;;;;;5111443;28;20481;-70
2023/02/15 11:29:54;;;;;;;14.23;11.30;;;24.80;71.20;;;;;;5111325;28;20513;-71
2023/02/15 11:32:24;;;;;;;11.33;9.50;;;24.80;71.10;;;;;;5110795;28;20839;-70
2023/02/15 11:34:56;;;;;;;10.60;9.20;;;25.20;71.20;;;;;;5111616;28;20895;-71
2023/02/15 11:37:33;;;;;;;11.17;9.30;;;25.60;70.20;;;;;;5111719;28;20483;-70
2023/02/15 11:40:03;;;;;;;10.50;9.40;;;25.30;70.50;;;;;;5111229;28;20485;-70
2023/02/15 11:42:32;;;;;;;11.60;9.90;;;25.70;70.00;;;;;;5110649;28;20452;-70
2023/02/15 11:45:05;;;;;;;10.47;9.37;;;25.50;69.90;;;;;;5111245;28;21228;-70
2023/02/15 11:47:32;;;;;;;9.87;8.33;;;25.00;71.50;;;;;;5110886;28;20877;-71
2023/02/15 11:50:00;;;;;;;11.20;10.00;;;25.40;69.20;;;;;;5110942;28;21066;-71
2023/02/15 11:52:27;;;;;;;11.07;9.73;;;26.00;69.10;;;;;;5110602;28;20456;-71
2023/02/15 11:54:54;;;;;;;12.77;9.80;;;25.70;69.90;;;;;;5110917;28;20456;-71
2023/02/15 11:57:28;;;;;;;11.10;9.40;;;25.70;69.80;;;;;;5110716;28;20526;-70
2023/02/15 12:00:00;;;;;;;12.20;9.17;;;25.80;70.00;;;;;;5110696;28;20489;-69
2023/02/15 12:02:29;;;;;;;10.03;9.03;;;26.40;68.80;;;;;;5110520;28;20871;-69
2023/02/15 12:05:01;;;;;;;17.60;8.83;;;26.50;68.40;;;;;;5102635;28;20479;-71
2023/02/15 12:07:32;;;;;;;11.00;9.17;;;26.10;68.80;;;;;;5102753;28;20827;-70
2023/02/15 12:10:06;;;;;;;10.97;9.50;;;26.30;69.00;;;;;;5102359;28;20461;-71
2023/02/15 12:12:35;;;;;;;16.03;9.97;;;26.20;67.60;;;;;;5107712;28;21105;-71
2023/02/15 12:15:04;;;;;;;11.10;9.40;;;26.80;66.40;;;;;;5105807;28;20461;-72
2023/02/15 12:17:34;;;;;;;13.03;9.90;;;27.30;65.90;;;;;;5109936;28;20552;-71
2023/02/15 12:20:04;;;;;;;11.50;10.00;;;27.10;66.10;;;;;;5113933;28;20476;-72
2023/02/15 12:22:34;;;;;;;10.57;8.80;;;27.30;65.70;;;;;;5113144;28;20496;-72
2023/02/15 12:25:04;;;;;;;12.67;10.67;;;27.20;65.70;;;;;;5107354;28;20459;-71
2023/02/15 12:27:33;;;;;;;13.00;10.90;;;26.70;65.50;;;;;;5105355;28;20484;-72
2023/02/15 12:30:03;;;;;;;16.37;11.60;;;26.90;65.00;;;;;;5111955;28;20452;-73
2023/02/15 12:32:34;;;;;;;11.40;10.20;;;26.60;65.10;;;;;;5102986;28;20983;-72
2023/02/15 12:35:09;;;;;;;10.97;9.57;;;25.80;67.10;;;;;;5108585;28;20461;-72
2023/02/15 12:37:36;;;;;;;12.97;9.93;;;25.50;66.90;;;;;;5104509;28;20469;-71
2023/02/15 12:40:20;;;;;;;11.60;10.43;;;26.20;66.10;;;;;;5111716;28;20483;-76
2023/02/15 12:42:47;;;;;;;12.20;10.90;;;26.10;65.20;;;;;;5102973;28;20515;-76
2023/02/15 12:45:31;;;;;;;11.00;9.50;;;26.00;65.80;;;;;;5102644;28;20469;-73
2023/02/15 12:48:16;;;;;;;12.90;9.90;;;25.80;65.20;;;;;;5100334;28;20480;-72
2023/02/15 12:50:46;;;;;;;14.30;9.73;;;26.20;64.20;;;;;;5109160;28;20488;-71
2023/02/15 12:53:18;;;;;;;11.60;10.40;;;25.80;65.40;;;;;;5102429;28;20523;-70
2023/02/15 12:55:53;;;;;;;13.50;9.47;;;25.80;65.80;;;;;;5102492;28;20958;-70
2023/02/15 12:58:23;;;;;;;9.50;8.50;;;25.60;64.80;;;;;;5106437;28;20830;-70
2023/02/15 13:01:03;;;;;;;10.77;7.80;;;25.70;64.50;;;;;;5108575;28;20555;-72
2023/02/15 13:03:30;;;;;;;10.90;8.43;;;25.50;64.20;;;;;;5104423;28;20458;-71
2023/02/15 13:05:59;;;;;;;12.03;9.73;;;25.80;65.30;;;;;;5107090;28;20543;-70
2023/02/15 13:08:31;;;;;;;9.60;8.60;;;25.70;65.20;;;;;;5106696;28;20847;-76
2023/02/15 13:11:00;;;;;;;11.03;9.43;;;25.90;64.50;;;;;;5107498;28;20461;-77
2023/02/15 13:13:29;;;;;;;10.77;8.60;;;25.70;65.20;;;;;;5104311;28;20461;-76
2023/02/15 13:15:59;;;;;;;10.90;9.50;;;25.70;65.10;;;;;;5107259;28;20461;-77